To NAV CANADA Home Page Login to a new session Search on AWWS site Feedback and Comments Disclaimer Vers la page française équivalente Tips FAQ What's new on the site To the Forecasts and Observations / NOTAM section To "File a Flight Plan" website Publications and other links Update of the User's profile FIC Telephone Numbers My Weather Data Folder Route Weather Data Regional Weather Data Local Weather Data To the Forecasts and Observations / NOTAM section
Request Generated 03/04/2015 at 04:18:18 UTC . Weather information available at that time is displayed.

METAR/TAF

OTTAWA/GATINEAU/QC    

LWIS CYND 040400Z AUTO 10003KT 030V130 M07/M07 A2954=
LWIS CYND 040300Z AUTO 09008KT M07/M08 A2955=
METAR CYND 040200Z 08010KT 3/4SM -SN VV006 M08/M09 A2958 RMK SN8
/S02/ LAST OBS/NEXT 041200 UTC PRESFR SLP023=

*** REMARK        : Forecast period has ended; this was the last TAF issued
*** REMARQUE : La période de prévision est échue; ceci était le dernier TAF qui a été émis
TAF CYND 032343Z 0400/0402 08010KT 2SM -SN OVC012 TEMPO 0400/0402
3/4SM -SN VV008
RMK NXT FCST WILL BE ISSUED AT 041345Z=
Your time UTC time
Weather data provided by Environment Canada and NAV CANADA